createdAt,value
2022-11-01T00:03:54.558Z,74.90
2022-11-01T00:08:57.213Z,75.18
2022-11-01T00:13:59.516Z,75.18
2022-11-01T00:19:01.898Z,75.18
2022-11-01T00:24:04.608Z,75.17
2022-11-01T00:29:06.968Z,75.21
2022-11-01T00:34:09.405Z,75.26
2022-11-01T00:39:16.223Z,75.44
2022-11-01T00:44:33.763Z,75.10
2022-11-01T00:49:35.997Z,75.13
2022-11-01T00:54:38.169Z,74.87
2022-11-01T00:59:59.163Z,74.89
2022-11-01T01:05:01.479Z,74.57
2022-11-01T01:10:06.605Z,74.22
2022-11-01T01:15:27.630Z,74.15
2022-11-01T01:20:29.884Z,73.95
2022-11-01T01:25:32.788Z,73.89
2022-11-01T01:30:35.114Z,73.81
2022-11-01T01:35:40.407Z,73.75
2022-11-01T01:40:42.762Z,73.77
2022-11-01T01:45:45.024Z,73.71
2022-11-01T01:51:10.569Z,73.48
2022-11-01T01:56:20.367Z,73.26
2022-11-01T02:01:42.119Z,73.29
2022-11-01T02:06:44.457Z,72.90
2022-11-01T02:11:47.102Z,72.79
2022-11-01T02:17:08.599Z,72.20
2022-11-01T02:22:38.794Z,72.74
2022-11-01T02:28:02.186Z,72.57
2022-11-01T02:33:29.410Z,72.58
2022-11-01T02:38:47.234Z,72.65
2022-11-01T02:44:00.492Z,72.24
2022-11-01T02:49:03.348Z,72.62
2022-11-01T02:54:21.242Z,71.75
2022-11-01T02:59:25.895Z,72.22
2022-11-01T03:04:47.794Z,72.42
2022-11-01T03:09:50.178Z,72.22
2022-11-01T03:15:04.390Z,71.87
2022-11-01T03:20:09.977Z,72.01
2022-11-01T03:25:40.197Z,72.05
2022-11-01T03:30:44.708Z,71.94
2022-11-01T03:35:49.604Z,72.16
2022-11-01T03:41:01.330Z,71.89
2022-11-01T03:46:03.850Z,72.07
2022-11-01T03:51:06.116Z,72.09
2022-11-01T03:56:08.319Z,71.74
2022-11-01T04:01:17.658Z,71.87
2022-11-01T04:06:20.122Z,72.05
2022-11-01T04:11:22.349Z,72.09
2022-11-01T04:16:43.051Z,71.96
2022-11-01T04:22:04.524Z,72.05
2022-11-01T04:27:06.827Z,72.09
2022-11-01T04:32:09.095Z,72.42
2022-11-01T04:37:12.305Z,72.11
2022-11-01T04:42:16.986Z,72.06
2022-11-01T04:47:19.260Z,72.30
2022-11-01T04:52:21.527Z,72.13
2022-11-01T04:57:23.700Z,72.22
2022-11-01T05:02:25.922Z,72.39
2022-11-01T05:07:28.950Z,72.48
2022-11-01T05:12:31.173Z,72.15
2022-11-01T05:17:33.455Z,72.48
2022-11-01T05:22:35.678Z,72.77
2022-11-01T05:27:41.041Z,72.50
2022-11-01T05:32:43.265Z,72.57
2022-11-01T05:37:46.642Z,72.48
2022-11-01T05:42:50.290Z,72.66
2022-11-01T05:48:12.322Z,72.81
2022-11-01T05:53:33.461Z,72.83
2022-11-01T05:58:37.552Z,72.69
2022-11-01T06:04:02.279Z,72.61
2022-11-01T06:09:04.634Z,72.65
2022-11-01T06:14:06.923Z,72.41
2022-11-01T06:19:09.579Z,72.72
2022-11-01T06:24:11.993Z,72.65
2022-11-01T06:29:14.236Z,72.78
2022-11-01T06:34:16.708Z,72.64
2022-11-01T06:39:19.207Z,72.77
2022-11-01T06:44:22.484Z,72.54
2022-11-01T06:49:24.790Z,72.65
2022-11-01T06:54:27.823Z,72.52
2022-11-01T06:59:30.170Z,72.50
2022-11-01T07:04:32.641Z,72.44
2022-11-01T07:09:36.097Z,72.70
2022-11-01T07:14:38.328Z,72.68
2022-11-01T07:19:41.347Z,72.56
2022-11-01T07:25:02.241Z,72.62
2022-11-01T07:30:06.120Z,72.50
2022-11-01T07:35:08.689Z,72.23
2022-11-01T07:40:11.714Z,72.29
2022-11-01T07:45:14.676Z,72.24
2022-11-01T07:50:35.731Z,72.09
2022-11-01T07:55:38.405Z,72.24
2022-11-01T08:00:41.290Z,72.21
2022-11-01T08:05:44.392Z,72.11
2022-11-01T08:10:47.064Z,71.91
2022-11-01T08:15:50.399Z,71.95
2022-11-01T08:20:52.736Z,71.98
2022-11-01T08:25:55.009Z,71.95
2022-11-01T08:30:57.370Z,72.09
2022-11-01T08:35:59.668Z,72.00
2022-11-01T08:41:01.963Z,71.83
2022-11-01T08:46:04.311Z,71.76
2022-11-01T08:51:06.765Z,72.03
2022-11-01T08:56:08.952Z,71.75
2022-11-01T09:01:29.799Z,71.83
2022-11-01T09:06:36.376Z,71.73
2022-11-01T09:11:41.183Z,71.49
2022-11-01T09:16:43.381Z,71.18
2022-11-01T09:21:46.217Z,71.38
2022-11-01T09:26:48.456Z,71.10
2022-11-01T09:31:54.452Z,71.20
2022-11-01T09:36:56.906Z,71.33
2022-11-01T09:42:02.306Z,71.21
2022-11-01T09:47:08.461Z,71.07
2022-11-01T09:52:19.280Z,70.53
2022-11-01T09:57:49.711Z,70.65
2022-11-01T10:03:01.035Z,70.71
2022-11-01T10:08:10.007Z,70.60
2022-11-01T10:13:56.816Z,70.32
2022-11-01T10:19:19.654Z,70.41
2022-11-01T10:24:39.443Z,70.19
2022-11-01T10:30:03.284Z,70.35
2022-11-01T10:35:15.254Z,69.80
2022-11-01T10:40:23.633Z,69.89
2022-11-01T10:45:26.033Z,70.18
2022-11-01T10:50:29.389Z,69.91
2022-11-01T10:55:48.614Z,69.59
2022-11-01T11:00:50.946Z,69.79
2022-11-01T11:05:54.304Z,69.63
2022-11-01T11:10:59.789Z,69.59
2022-11-01T11:16:06.804Z,69.76
2022-11-01T11:21:14.146Z,69.52
2022-11-01T11:26:19.458Z,69.77
2022-11-01T11:31:24.898Z,69.59
2022-11-01T11:36:30.738Z,69.31
2022-11-01T11:41:39.465Z,69.08
2022-11-01T11:46:59.207Z,68.41
2022-11-01T11:52:04.377Z,68.92
2022-11-01T11:57:31.142Z,68.73
2022-11-01T12:02:36.642Z,68.86
2022-11-01T12:07:48.089Z,68.15
2022-11-01T12:12:52.956Z,68.77
2022-11-01T12:17:55.690Z,68.83
2022-11-01T12:23:13.232Z,68.45
2022-11-01T12:28:27.500Z,68.04
2022-11-01T12:33:37.572Z,68.47
2022-11-01T12:38:50.339Z,68.59
2022-11-01T12:43:52.415Z,68.84
2022-11-01T12:48:57.086Z,68.79
2022-11-01T12:54:12.377Z,68.17
2022-11-01T12:59:20.533Z,68.24
2022-11-01T13:04:34.871Z,68.47
2022-11-01T13:09:52.227Z,68.18
2022-11-01T13:15:35.997Z,68.33
2022-11-01T13:20:44.504Z,68.58
2022-11-01T13:26:04.498Z,68.27
2022-11-01T13:31:08.858Z,68.54
2022-11-01T13:37:04.726Z,68.70
2022-11-01T13:42:17.871Z,68.94
2022-11-01T13:47:38.301Z,68.46
2022-11-01T13:53:02.880Z,68.85
2022-11-01T13:58:08.490Z,68.90
2022-11-01T14:03:18.644Z,68.81
2022-11-01T14:08:42.384Z,68.85
2022-11-01T14:13:47.994Z,69.18
2022-11-01T14:19:19.104Z,69.04
2022-11-01T14:24:34.598Z,69.28
2022-11-01T14:29:37.640Z,69.22
2022-11-01T14:34:41.564Z,69.21
2022-11-01T14:40:31.625Z,68.93
2022-11-01T14:45:40.382Z,69.13
2022-11-01T14:50:46.018Z,69.39
2022-11-01T14:55:50.579Z,69.47
2022-11-01T15:00:55.250Z,69.53
2022-11-01T15:05:57.530Z,69.52
2022-11-01T15:11:02.629Z,69.67
2022-11-01T15:16:23.325Z,69.97
2022-11-01T15:21:47.305Z,70.09
2022-11-01T15:26:50.260Z,70.05
2022-11-01T15:31:57.573Z,70.18
2022-11-01T15:37:10.954Z,70.34
2022-11-01T15:42:20.602Z,70.52
2022-11-01T15:47:25.103Z,70.26
2022-11-01T15:52:33.303Z,70.44
2022-11-01T15:57:41.955Z,70.30
2022-11-01T16:02:48.999Z,70.41
2022-11-01T16:07:51.633Z,70.45
2022-11-01T16:12:55.600Z,70.50
2022-11-01T16:18:00.303Z,70.29
2022-11-01T16:23:28.187Z,70.52
2022-11-01T16:28:50.792Z,70.53
2022-11-01T16:34:27.423Z,70.57
2022-11-01T16:39:32.845Z,70.58
2022-11-01T16:44:35.113Z,70.48
2022-11-01T16:49:37.492Z,70.40
2022-11-01T16:54:39.748Z,70.45
2022-11-01T16:59:42.401Z,70.18
2022-11-01T17:04:46.334Z,70.29
2022-11-01T17:10:21.764Z,70.47
2022-11-01T17:15:27.024Z,70.24
2022-11-01T17:20:29.387Z,70.33
2022-11-01T17:25:51.831Z,70.47
2022-11-01T17:30:55.031Z,70.47
2022-11-01T17:35:58.924Z,70.54
2022-11-01T17:41:20.135Z,70.53
2022-11-01T17:46:25.546Z,70.46
2022-11-01T17:51:28.035Z,70.49
2022-11-01T17:56:30.351Z,70.70
2022-11-01T18:01:51.202Z,70.56
2022-11-01T18:07:13.077Z,70.68
2022-11-01T18:12:38.859Z,70.63
2022-11-01T18:17:54.083Z,71.00
2022-11-01T18:23:18.393Z,70.90
2022-11-01T18:28:32.048Z,70.88
2022-11-01T18:33:48.692Z,71.00
2022-11-01T18:39:54.527Z,71.21
2022-11-01T18:44:58.860Z,70.97
2022-11-01T18:50:12.789Z,70.83
2022-11-01T18:55:18.536Z,71.18
2022-11-01T19:00:20.809Z,71.29
2022-11-01T19:05:24.839Z,71.37
2022-11-01T19:10:28.813Z,71.34
2022-11-01T19:15:33.906Z,71.50
2022-11-01T19:20:40.171Z,71.76
2022-11-01T19:25:46.251Z,71.82
2022-11-01T19:30:52.830Z,71.80
2022-11-01T19:35:55.631Z,71.69
2022-11-01T19:40:58.140Z,71.82
2022-11-01T19:46:00.495Z,71.79
2022-11-01T19:51:02.945Z,71.82
2022-11-01T19:56:08.025Z,71.73
2022-11-01T20:01:25.858Z,72.13
2022-11-01T20:06:32.601Z,72.17
2022-11-01T20:11:35.131Z,72.27
2022-11-01T20:16:37.440Z,72.26
2022-11-01T20:21:40.073Z,72.23
2022-11-01T20:26:45.289Z,72.33
2022-11-01T20:32:06.311Z,72.42
2022-11-01T20:37:28.920Z,72.43
2022-11-01T20:42:31.805Z,72.47
2022-11-01T20:47:34.080Z,72.50
2022-11-01T20:52:40.244Z,72.41
2022-11-01T20:57:42.760Z,72.58
2022-11-01T21:02:46.668Z,72.69
2022-11-01T21:07:49.292Z,72.50
2022-11-01T21:12:51.642Z,72.50
2022-11-01T21:18:05.939Z,72.92
2022-11-01T21:23:35.856Z,72.92
2022-11-01T21:28:42.444Z,72.51
2022-11-01T21:34:06.459Z,72.58
2022-11-01T21:39:15.723Z,72.85
2022-11-01T21:44:40.887Z,73.00
2022-11-01T21:49:43.697Z,72.69
2022-11-01T21:54:46.724Z,72.87
2022-11-01T21:59:48.950Z,72.80
2022-11-01T22:04:51.293Z,72.93
2022-11-01T22:10:12.093Z,72.96
2022-11-01T22:15:33.274Z,73.03
2022-11-01T22:20:35.505Z,73.24
2022-11-01T22:25:56.246Z,73.13
2022-11-01T22:30:58.500Z,73.09
2022-11-01T22:36:01.164Z,73.42
2022-11-01T22:41:29.920Z,73.46
2022-11-01T22:46:56.803Z,73.94
2022-11-01T22:52:31.843Z,74.09
2022-11-01T22:57:35.909Z,73.52
2022-11-01T23:02:39.333Z,73.72
2022-11-01T23:07:51.751Z,74.18
2022-11-01T23:13:30.628Z,74.26
2022-11-01T23:18:33.890Z,73.77
2022-11-01T23:23:37.395Z,73.93
2022-11-01T23:28:48.335Z,74.32
2022-11-01T23:33:51.161Z,74.10
2022-11-01T23:38:55.791Z,73.97
2022-11-01T23:43:58.852Z,74.21
2022-11-01T23:49:13.682Z,74.30
2022-11-01T23:54:34.808Z,74.35
2022-11-01T23:59:36.999Z,74.12
